createdAt,value
2023-07-21T00:00:24.621Z,17.93
2023-07-21T00:02:53.383Z,17.77
2023-07-21T00:05:20.332Z,17.77
2023-07-21T00:07:49.564Z,17.80
2023-07-21T00:10:16.749Z,17.72
2023-07-21T00:12:48.781Z,17.67
2023-07-21T00:15:18.937Z,17.64
2023-07-21T00:17:51.410Z,17.62
2023-07-21T00:20:23.687Z,17.53
2023-07-21T00:22:50.862Z,17.59
2023-07-21T00:25:18.077Z,17.54
2023-07-21T00:27:45.664Z,17.46
2023-07-21T00:30:13.046Z,17.39
2023-07-21T00:32:40.984Z,17.35
2023-07-21T00:35:10.150Z,17.39
2023-07-21T00:37:38.611Z,17.36
2023-07-21T00:40:11.549Z,17.30
2023-07-21T00:42:38.907Z,17.25
2023-07-21T00:45:06.359Z,17.18
2023-07-21T00:47:35.596Z,17.09
2023-07-21T00:50:02.984Z,17.08
2023-07-21T00:52:29.923Z,17.01
2023-07-21T00:54:56.864Z,17.06
2023-07-21T00:57:24.831Z,16.93
2023-07-21T00:59:52.304Z,16.90
2023-07-21T01:02:19.693Z,16.85
2023-07-21T01:04:47.758Z,16.91
2023-07-21T01:07:15.997Z,16.76
2023-07-21T01:09:44.668Z,16.78
2023-07-21T01:12:12.609Z,16.74
2023-07-21T01:14:39.490Z,16.65
2023-07-21T01:17:09.491Z,16.51
2023-07-21T01:19:39.023Z,16.67
2023-07-21T01:22:26.217Z,16.63
2023-07-21T01:24:55.960Z,16.58
2023-07-21T01:27:25.618Z,16.57
2023-07-21T01:29:54.075Z,16.47
2023-07-21T01:32:23.351Z,16.50
2023-07-21T01:34:51.693Z,16.39
2023-07-21T01:37:19.856Z,16.38
2023-07-21T01:39:49.199Z,16.34
2023-07-21T01:42:16.334Z,16.35
2023-07-21T01:44:44.742Z,16.34
2023-07-21T01:47:11.609Z,16.33
2023-07-21T01:49:38.533Z,16.30
2023-07-21T01:52:05.755Z,16.24
2023-07-21T01:54:47.209Z,16.29
2023-07-21T01:57:21.734Z,16.29
2023-07-21T01:59:50.957Z,16.21
2023-07-21T02:02:20.257Z,16.26
2023-07-21T02:04:54.530Z,16.31
2023-07-21T02:07:22.031Z,16.27
2023-07-21T02:09:53.891Z,16.28
2023-07-21T02:12:22.628Z,16.30
2023-07-21T02:14:59.549Z,16.22
2023-07-21T02:17:26.532Z,16.32
2023-07-21T02:19:53.400Z,16.17
2023-07-21T02:22:21.094Z,16.32
2023-07-21T02:24:47.966Z,16.37
2023-07-21T02:27:14.912Z,16.41
2023-07-21T02:29:41.773Z,16.39
2023-07-21T02:32:11.769Z,16.33
2023-07-21T02:34:40.457Z,16.33
2023-07-21T02:37:07.286Z,16.43
2023-07-21T02:39:34.461Z,16.35
2023-07-21T02:42:01.278Z,16.44
2023-07-21T02:44:29.133Z,16.46
2023-07-21T02:46:56.282Z,16.44
2023-07-21T02:49:23.158Z,16.46
2023-07-21T02:51:50.160Z,16.39
2023-07-21T02:54:18.586Z,16.32
2023-07-21T02:56:45.905Z,16.38
2023-07-21T02:59:19.718Z,16.45
2023-07-21T03:01:56.438Z,16.43
2023-07-21T03:04:33.188Z,16.45
2023-07-21T03:07:02.956Z,16.39
2023-07-21T03:09:30.779Z,16.47
2023-07-21T03:11:58.533Z,16.42
2023-07-21T03:14:50.294Z,16.41
2023-07-21T03:17:19.102Z,16.35
2023-07-21T03:19:46.025Z,16.39
2023-07-21T03:22:17.475Z,16.44
2023-07-21T03:24:47.169Z,16.41
2023-07-21T03:27:15.116Z,16.38
2023-07-21T03:29:43.136Z,16.38
2023-07-21T03:32:12.626Z,16.33
2023-07-21T03:34:39.510Z,16.38
2023-07-21T03:37:09.868Z,16.34
2023-07-21T03:39:37.936Z,16.26
2023-07-21T03:42:05.733Z,16.35
2023-07-21T03:44:32.540Z,16.35
2023-07-21T03:46:59.418Z,16.35
2023-07-21T03:49:36.494Z,16.30
2023-07-21T03:52:09.974Z,16.31
2023-07-21T03:54:37.895Z,16.30
2023-07-21T03:57:05.041Z,16.38
2023-07-21T03:59:32.167Z,16.36
2023-07-21T04:01:59.023Z,16.35
2023-07-21T04:04:26.067Z,16.41
2023-07-21T04:06:53.004Z,16.39
2023-07-21T04:09:19.870Z,16.32
2023-07-21T04:11:46.676Z,16.48
2023-07-21T04:14:13.556Z,16.53
2023-07-21T04:16:40.441Z,16.55
2023-07-21T04:19:07.395Z,16.53
2023-07-21T04:21:34.258Z,16.67
2023-07-21T04:24:01.297Z,16.63
2023-07-21T04:26:28.178Z,16.78
2023-07-21T04:28:55.195Z,16.80
2023-07-21T04:31:23.722Z,16.88
2023-07-21T04:34:01.181Z,16.93
2023-07-21T04:36:28.777Z,16.93
2023-07-21T04:38:59.095Z,17.08
2023-07-21T04:41:26.726Z,17.08
2023-07-21T04:43:53.831Z,17.15
2023-07-21T04:46:20.788Z,17.29
2023-07-21T04:48:49.233Z,17.34
2023-07-21T04:51:25.778Z,17.44
2023-07-21T04:53:52.867Z,17.45
2023-07-21T04:56:22.870Z,17.62
2023-07-21T04:58:54.601Z,17.70
2023-07-21T05:01:21.536Z,17.68
2023-07-21T05:03:48.391Z,17.77
2023-07-21T05:06:17.759Z,17.85
2023-07-21T05:08:48.401Z,17.91
2023-07-21T05:11:16.905Z,17.93
2023-07-21T05:13:46.449Z,17.93
2023-07-21T05:16:23.726Z,17.90
2023-07-21T05:19:05.408Z,17.90
2023-07-21T05:21:57.238Z,17.85
2023-07-21T05:24:59.424Z,17.82
2023-07-21T05:27:26.628Z,17.88
2023-07-21T05:29:55.794Z,17.84
2023-07-21T05:32:24.365Z,17.94
2023-07-21T05:35:09.920Z,17.95
2023-07-21T05:37:39.150Z,18.02
2023-07-21T05:40:07.577Z,18.07
2023-07-21T05:42:35.235Z,18.08
2023-07-21T05:45:03.867Z,18.14
2023-07-21T05:47:32.262Z,18.17
2023-07-21T05:50:02.235Z,18.14
2023-07-21T05:52:31.858Z,18.17
2023-07-21T05:54:58.710Z,18.23
2023-07-21T05:57:29.848Z,18.18
2023-07-21T05:59:57.939Z,18.28
2023-07-21T06:02:24.934Z,18.32
2023-07-21T06:04:57.804Z,18.27
2023-07-21T06:07:45.898Z,18.49
2023-07-21T06:10:33.072Z,18.49
2023-07-21T06:13:13.786Z,18.62
2023-07-21T06:15:50.739Z,18.78
2023-07-21T06:18:22.265Z,18.89
2023-07-21T06:20:52.415Z,19.01
2023-07-21T06:23:19.955Z,19.16
2023-07-21T06:25:48.217Z,19.32
2023-07-21T06:28:17.627Z,19.50
2023-07-21T06:30:44.666Z,19.58
2023-07-21T06:33:21.363Z,19.74
2023-07-21T06:35:55.439Z,19.82
2023-07-21T06:38:54.682Z,19.94
2023-07-21T06:41:52.790Z,20.01
2023-07-21T06:44:37.972Z,20.17
2023-07-21T06:47:22.378Z,20.21
2023-07-21T06:50:12.232Z,20.40
2023-07-21T06:52:41.046Z,20.48
2023-07-21T06:55:08.483Z,20.68
2023-07-21T06:57:35.524Z,20.79
2023-07-21T07:00:02.452Z,20.93
2023-07-21T07:02:29.524Z,21.07
2023-07-21T07:04:56.688Z,21.09
2023-07-21T07:07:23.551Z,21.35
2023-07-21T07:09:50.385Z,21.53
2023-07-21T07:12:21.409Z,21.64
2023-07-21T07:14:48.291Z,21.72
2023-07-21T07:17:15.169Z,21.85
2023-07-21T07:19:42.298Z,22.01
2023-07-21T07:22:10.846Z,22.16
2023-07-21T07:24:40.743Z,22.43
2023-07-21T07:27:07.818Z,22.76
2023-07-21T07:29:36.237Z,23.09
2023-07-21T07:32:03.548Z,23.42
2023-07-21T07:34:30.425Z,23.79
2023-07-21T07:36:59.561Z,24.08
2023-07-21T07:39:26.516Z,24.27
2023-07-21T07:41:53.446Z,24.41
2023-07-21T07:44:20.611Z,24.55
2023-07-21T07:46:47.578Z,24.66
2023-07-21T07:49:14.484Z,24.66
2023-07-21T07:51:41.353Z,24.84
2023-07-21T07:54:08.957Z,24.90
2023-07-21T07:56:35.854Z,24.89
2023-07-21T07:59:02.669Z,25.08
2023-07-21T08:01:29.853Z,25.17
2023-07-21T08:03:57.251Z,25.29
2023-07-21T08:06:24.213Z,25.45
2023-07-21T08:08:51.094Z,25.40
2023-07-21T08:11:17.981Z,25.72
2023-07-21T08:13:45.906Z,25.91
2023-07-21T08:16:14.366Z,26.16
2023-07-21T08:18:41.437Z,26.43
2023-07-21T08:21:21.989Z,26.63
2023-07-21T08:23:52.878Z,26.87
2023-07-21T08:26:20.056Z,27.17
2023-07-21T08:28:47.072Z,27.37
2023-07-21T08:31:13.993Z,27.55
2023-07-21T08:33:41.418Z,27.70
2023-07-21T08:36:08.307Z,27.79
2023-07-21T08:38:35.164Z,27.90
2023-07-21T08:41:08.530Z,27.92
2023-07-21T08:43:35.983Z,27.87
2023-07-21T08:46:07.122Z,27.79
2023-07-21T08:48:35.425Z,27.80
2023-07-21T08:51:03.448Z,27.75
2023-07-21T08:53:30.301Z,27.72
2023-07-21T08:55:58.779Z,27.60
2023-07-21T08:58:27.776Z,27.58
2023-07-21T09:00:56.139Z,27.30
2023-07-21T09:03:31.175Z,27.12
2023-07-21T09:06:00.042Z,26.96
2023-07-21T09:08:33.107Z,26.99
2023-07-21T09:11:04.444Z,26.97
2023-07-21T09:13:32.702Z,26.93
2023-07-21T09:16:00.794Z,27.04
2023-07-21T09:18:43.294Z,27.10
2023-07-21T09:21:18.511Z,27.24
2023-07-21T09:23:45.414Z,27.41
2023-07-21T09:26:12.278Z,27.59
2023-07-21T09:28:41.793Z,27.80
2023-07-21T09:31:12.745Z,27.86
2023-07-21T09:33:45.081Z,28.08
2023-07-21T09:36:17.200Z,28.05
2023-07-21T09:38:45.366Z,28.12
2023-07-21T09:41:14.650Z,28.12
2023-07-21T09:43:42.807Z,28.02
2023-07-21T09:46:17.793Z,28.12
2023-07-21T09:48:46.553Z,27.98
2023-07-21T09:51:13.832Z,27.83
2023-07-21T09:53:44.709Z,27.86
2023-07-21T09:56:16.496Z,27.87
2023-07-21T09:58:51.525Z,27.82
2023-07-21T10:01:19.965Z,27.73
2023-07-21T10:03:47.176Z,27.38
2023-07-21T10:06:16.417Z,27.69
2023-07-21T10:08:44.192Z,27.68
2023-07-21T10:11:11.185Z,27.73
2023-07-21T10:13:46.323Z,27.76
2023-07-21T10:16:13.745Z,27.97
2023-07-21T10:19:13.300Z,28.20
2023-07-21T10:21:54.912Z,28.52
2023-07-21T10:24:29.799Z,29.01
2023-07-21T10:27:01.579Z,29.39
2023-07-21T10:29:28.473Z,29.89
2023-07-21T10:31:57.721Z,30.14
2023-07-21T10:34:26.775Z,30.51
2023-07-21T10:36:53.901Z,30.93
2023-07-21T10:39:25.495Z,31.21
2023-07-21T10:41:55.206Z,31.22
2023-07-21T10:44:23.051Z,31.33
2023-07-21T10:46:52.234Z,31.43
2023-07-21T10:49:20.253Z,31.32
2023-07-21T10:51:49.430Z,31.21
2023-07-21T10:54:17.657Z,31.43
2023-07-21T10:56:47.551Z,31.20
2023-07-21T10:59:15.622Z,31.49
2023-07-21T11:01:48.043Z,31.75
2023-07-21T11:04:17.906Z,31.99
2023-07-21T11:06:46.160Z,32.24
2023-07-21T11:09:14.037Z,32.29
2023-07-21T11:11:44.372Z,32.40
2023-07-21T11:14:12.761Z,32.52
2023-07-21T11:16:49.086Z,32.50
2023-07-21T11:19:17.192Z,32.46
2023-07-21T11:21:44.095Z,32.81
2023-07-21T11:24:11.296Z,33.01
2023-07-21T11:26:40.232Z,33.42
2023-07-21T11:29:08.445Z,33.46
2023-07-21T11:31:38.872Z,33.53
2023-07-21T11:34:21.653Z,33.02
2023-07-21T11:36:50.365Z,33.16
2023-07-21T11:39:23.642Z,33.19
2023-07-21T11:41:52.930Z,32.90
2023-07-21T11:44:31.391Z,32.40
2023-07-21T11:47:06.477Z,32.35
2023-07-21T11:49:39.486Z,31.75
2023-07-21T11:52:07.335Z,31.46
2023-07-21T11:54:39.189Z,31.41
2023-07-21T11:57:06.194Z,31.42
2023-07-21T11:59:33.339Z,31.54
2023-07-21T12:02:00.394Z,32.21
2023-07-21T12:04:29.074Z,32.47
2023-07-21T12:06:56.224Z,32.81
2023-07-21T12:09:23.436Z,32.94
2023-07-21T12:11:50.572Z,32.77
2023-07-21T12:14:17.489Z,32.51
2023-07-21T12:16:44.559Z,32.41
2023-07-21T12:19:11.377Z,31.96
2023-07-21T12:21:47.777Z,31.95
2023-07-21T12:24:15.142Z,32.01
2023-07-21T12:26:45.043Z,32.02
2023-07-21T12:29:11.834Z,32.09
2023-07-21T12:31:38.790Z,31.70
2023-07-21T12:34:06.568Z,31.59
2023-07-21T12:36:33.687Z,31.40
2023-07-21T12:39:00.552Z,31.32
2023-07-21T12:41:27.770Z,31.50
2023-07-21T12:43:54.808Z,31.67
2023-07-21T12:46:21.775Z,32.06
2023-07-21T12:48:48.912Z,32.32
2023-07-21T12:51:15.773Z,32.57
2023-07-21T12:53:42.656Z,32.24
2023-07-21T12:56:09.917Z,32.18
2023-07-21T12:58:36.939Z,31.63
2023-07-21T13:01:03.952Z,31.34
2023-07-21T13:03:31.113Z,31.02
2023-07-21T13:05:58.223Z,30.40
2023-07-21T13:08:27.009Z,30.12
2023-07-21T13:10:56.075Z,29.93
2023-07-21T13:13:23.014Z,29.64
2023-07-21T13:15:52.798Z,29.28
2023-07-21T13:18:22.214Z,29.30
2023-07-21T13:20:49.431Z,29.33
2023-07-21T13:23:22.061Z,29.81
2023-07-21T13:25:53.145Z,30.03
2023-07-21T13:28:20.069Z,30.29
2023-07-21T13:30:47.900Z,30.27
2023-07-21T13:33:16.526Z,29.89
2023-07-21T13:35:43.346Z,30.05
2023-07-21T13:40:54.270Z,30.10
2023-07-21T13:43:21.615Z,29.93
2023-07-21T13:45:49.280Z,29.51
2023-07-21T13:48:16.266Z,29.31
2023-07-21T13:50:43.231Z,29.15
2023-07-21T13:53:10.042Z,29.31
2023-07-21T13:55:37.147Z,29.22
2023-07-21T13:58:04.118Z,29.42
2023-07-21T14:00:31.441Z,29.44
2023-07-21T14:02:58.476Z,29.50
2023-07-21T14:05:28.828Z,29.86
2023-07-21T14:07:56.524Z,29.70
2023-07-21T14:10:23.321Z,29.77
2023-07-21T14:12:50.146Z,29.59
2023-07-21T14:15:17.451Z,29.40
2023-07-21T14:17:44.391Z,29.29
2023-07-21T14:20:11.689Z,29.23
2023-07-21T14:22:39.326Z,29.18
2023-07-21T14:25:06.837Z,28.97
2023-07-21T14:27:33.711Z,29.04
2023-07-21T14:30:00.588Z,28.97
2023-07-21T14:32:28.169Z,28.78
2023-07-21T14:34:55.255Z,28.73
2023-07-21T14:37:22.205Z,28.75
2023-07-21T14:39:49.005Z,28.87
2023-07-21T14:42:16.092Z,28.99
2023-07-21T14:44:43.020Z,29.19
2023-07-21T14:47:10.336Z,29.31
2023-07-21T14:49:39.607Z,29.30
2023-07-21T14:52:07.336Z,29.43
2023-07-21T14:54:34.247Z,29.26
2023-07-21T14:57:01.064Z,28.99
2023-07-21T14:59:27.868Z,29.00
2023-07-21T15:01:54.711Z,28.80
2023-07-21T15:04:22.933Z,28.72
2023-07-21T15:06:49.734Z,28.84
2023-07-21T15:09:16.644Z,28.98
2023-07-21T15:11:46.535Z,28.74
2023-07-21T15:14:13.255Z,28.74
2023-07-21T15:16:40.076Z,28.69
2023-07-21T15:19:06.902Z,28.76
2023-07-21T15:21:33.750Z,28.59
2023-07-21T15:24:00.679Z,28.65
2023-07-21T15:26:30.310Z,28.67
2023-07-21T15:28:57.264Z,28.84
2023-07-21T15:31:24.301Z,28.95
2023-07-21T15:33:51.374Z,28.99
2023-07-21T15:36:21.739Z,28.97
2023-07-21T15:38:49.745Z,28.78
2023-07-21T15:41:16.590Z,28.83
2023-07-21T15:43:43.601Z,29.28
2023-07-21T15:46:10.724Z,29.55
2023-07-21T15:48:37.675Z,29.59
2023-07-21T15:51:05.905Z,29.42
2023-07-21T15:53:32.820Z,28.90
2023-07-21T15:55:59.644Z,28.77
2023-07-21T15:58:26.520Z,29.01
2023-07-21T16:00:59.880Z,28.91
2023-07-21T16:03:27.393Z,28.90
2023-07-21T16:05:55.155Z,29.06
2023-07-21T16:08:26.597Z,29.07
2023-07-21T16:10:53.614Z,29.16
2023-07-21T16:13:21.675Z,29.16
2023-07-21T16:15:50.643Z,28.94
2023-07-21T16:18:17.529Z,28.90
2023-07-21T16:20:44.435Z,28.62
2023-07-21T16:23:12.170Z,28.42
2023-07-21T16:25:39.198Z,27.83
2023-07-21T16:28:06.427Z,27.76
2023-07-21T16:30:33.327Z,27.72
2023-07-21T16:33:00.212Z,27.35
2023-07-21T16:35:27.828Z,27.42
2023-07-21T16:37:57.709Z,27.43
2023-07-21T16:40:24.517Z,27.11
2023-07-21T16:42:51.344Z,26.97
2023-07-21T16:45:18.859Z,26.75
2023-07-21T16:47:45.818Z,26.43
2023-07-21T16:50:13.384Z,26.20
2023-07-21T16:52:40.900Z,26.08
2023-07-21T16:55:08.779Z,25.83
2023-07-21T16:57:35.609Z,25.49
2023-07-21T17:00:11.189Z,25.45
2023-07-21T17:02:38.735Z,25.25
2023-07-21T17:05:20.094Z,25.25
2023-07-21T17:07:51.921Z,25.06
2023-07-21T17:10:18.856Z,24.83
2023-07-21T17:12:45.890Z,24.61
2023-07-21T17:15:13.947Z,24.59
2023-07-21T17:17:40.886Z,24.28
2023-07-21T17:20:13.103Z,24.05
2023-07-21T17:22:45.288Z,23.89
2023-07-21T17:25:12.271Z,23.71
2023-07-21T17:27:39.326Z,23.51
2023-07-21T17:30:07.349Z,22.94
2023-07-21T17:32:34.308Z,23.06
2023-07-21T17:35:01.253Z,22.75
2023-07-21T17:37:28.504Z,22.51
2023-07-21T17:39:55.507Z,22.44
2023-07-21T17:42:22.575Z,22.46
2023-07-21T17:44:49.423Z,22.57
2023-07-21T17:47:16.332Z,22.32
2023-07-21T17:49:43.168Z,21.92
2023-07-21T17:52:10.120Z,21.75
2023-07-21T17:54:37.055Z,21.39
2023-07-21T17:57:05.300Z,20.96
2023-07-21T17:59:32.105Z,20.71
2023-07-21T18:01:59.145Z,20.55
2023-07-21T18:04:26.422Z,20.27
2023-07-21T18:06:53.337Z,20.20
2023-07-21T18:09:20.254Z,20.04
2023-07-21T18:11:47.143Z,19.95
2023-07-21T18:14:13.938Z,19.89
2023-07-21T18:16:40.945Z,19.71
2023-07-21T18:19:07.899Z,19.66
2023-07-21T18:21:36.285Z,19.62
2023-07-21T18:24:03.201Z,19.50
2023-07-21T18:26:30.037Z,19.43
2023-07-21T18:28:57.125Z,19.31
2023-07-21T18:31:24.350Z,19.34
2023-07-21T18:33:51.504Z,19.37
2023-07-21T18:36:19.058Z,19.27
2023-07-21T18:38:47.071Z,19.36
2023-07-21T18:41:15.099Z,19.36
2023-07-21T18:43:42.616Z,19.26
2023-07-21T18:46:09.867Z,19.24
2023-07-21T18:48:36.672Z,19.27
2023-07-21T18:51:03.629Z,19.18
2023-07-21T18:53:30.473Z,19.18
2023-07-21T18:55:57.355Z,19.12
2023-07-21T18:58:24.228Z,19.09
2023-07-21T19:00:51.605Z,19.03
2023-07-21T19:03:18.877Z,18.98
2023-07-21T19:05:50.640Z,18.94
2023-07-21T19:08:17.490Z,18.85
2023-07-21T19:10:44.358Z,18.71
2023-07-21T19:13:11.186Z,18.66
2023-07-21T19:15:39.126Z,18.57
2023-07-21T19:18:06.063Z,18.55
2023-07-21T19:20:32.942Z,18.57
2023-07-21T19:23:00.095Z,18.50
2023-07-21T19:25:26.950Z,18.47
2023-07-21T19:27:57.623Z,18.39
2023-07-21T19:30:24.492Z,18.37
2023-07-21T19:32:51.336Z,18.23
2023-07-21T19:35:18.314Z,18.15
2023-07-21T19:37:45.127Z,18.16
2023-07-21T19:40:12.183Z,18.08
2023-07-21T19:42:39.043Z,17.95
2023-07-21T19:45:07.806Z,17.99
2023-07-21T19:47:34.818Z,17.89
2023-07-21T19:50:01.878Z,17.80
2023-07-21T19:52:28.781Z,17.69
2023-07-21T19:54:55.581Z,17.64
2023-07-21T19:57:22.789Z,17.53
2023-07-21T19:59:49.863Z,17.52
2023-07-21T20:02:16.894Z,17.37
2023-07-21T20:04:44.385Z,17.35
2023-07-21T20:07:11.338Z,17.27
2023-07-21T20:09:39.003Z,17.17
2023-07-21T20:12:06.504Z,16.96
2023-07-21T20:14:33.777Z,16.97
2023-07-21T20:17:00.684Z,16.84
2023-07-21T20:19:28.577Z,16.84
2023-07-21T20:21:55.460Z,16.69
2023-07-21T20:24:22.334Z,16.61
2023-07-21T20:26:49.222Z,16.60
2023-07-21T20:29:16.099Z,16.47
2023-07-21T20:31:43.010Z,16.42
2023-07-21T20:34:09.855Z,16.34
2023-07-21T20:36:37.388Z,16.35
2023-07-21T20:39:04.325Z,16.29
2023-07-21T20:41:31.144Z,16.12
2023-07-21T20:43:57.972Z,16.13
2023-07-21T20:46:25.111Z,16.07
2023-07-21T20:48:52.303Z,15.99
2023-07-21T20:51:19.325Z,16.02
2023-07-21T20:53:46.742Z,15.97
2023-07-21T20:56:13.786Z,15.86
2023-07-21T20:58:40.986Z,15.77
2023-07-21T21:01:08.716Z,15.76
2023-07-21T21:03:35.707Z,15.76
2023-07-21T21:06:02.561Z,15.68
2023-07-21T21:08:29.442Z,15.62
2023-07-21T21:10:57.674Z,15.63
2023-07-21T21:13:24.787Z,15.57
2023-07-21T21:15:54.186Z,15.54
2023-07-21T21:18:21.181Z,15.44
2023-07-21T21:20:48.437Z,15.41
2023-07-21T21:23:15.237Z,15.30
2023-07-21T21:25:42.169Z,15.33
2023-07-21T21:28:09.136Z,15.09
2023-07-21T21:30:36.040Z,15.28
2023-07-21T21:33:03.312Z,15.27
2023-07-21T21:35:31.693Z,15.19
2023-07-21T21:37:58.647Z,15.18
2023-07-21T21:40:25.649Z,15.02
2023-07-21T21:42:53.216Z,15.06
2023-07-21T21:45:20.277Z,15.10
2023-07-21T21:47:47.275Z,15.04
2023-07-21T21:50:14.933Z,15.03
2023-07-21T21:52:41.815Z,14.81
2023-07-21T21:55:09.170Z,14.88
2023-07-21T21:57:36.002Z,14.84
2023-07-21T22:00:03.425Z,14.77
2023-07-21T22:02:34.499Z,14.68
2023-07-21T22:05:01.491Z,14.58
2023-07-21T22:07:28.291Z,14.67
2023-07-21T22:09:55.257Z,14.58
2023-07-21T22:12:22.163Z,14.64
2023-07-21T22:14:56.710Z,14.53
2023-07-21T22:17:24.613Z,14.48
2023-07-21T22:20:08.655Z,14.47
2023-07-21T22:22:39.995Z,14.50
2023-07-21T22:25:07.459Z,14.45
2023-07-21T22:27:34.595Z,14.38
2023-07-21T22:30:01.614Z,14.39
2023-07-21T22:32:29.110Z,14.33
2023-07-21T22:34:56.075Z,14.25
2023-07-21T22:37:22.925Z,14.31
2023-07-21T22:39:49.730Z,14.20
2023-07-21T22:42:16.742Z,14.24
2023-07-21T22:44:43.543Z,14.09
2023-07-21T22:47:12.154Z,14.09
2023-07-21T22:49:39.237Z,13.95
2023-07-21T22:52:06.752Z,14.12
2023-07-21T22:54:33.683Z,14.07
2023-07-21T22:57:00.607Z,13.98
2023-07-21T22:59:27.438Z,13.93
2023-07-21T23:01:54.815Z,13.92
2023-07-21T23:04:23.552Z,13.96
2023-07-21T23:06:50.479Z,13.92
2023-07-21T23:09:17.478Z,13.88
2023-07-21T23:11:44.916Z,13.77
2023-07-21T23:14:11.959Z,13.74
2023-07-21T23:16:39.004Z,13.72
2023-07-21T23:19:07.072Z,13.76
2023-07-21T23:21:33.924Z,13.62
2023-07-21T23:24:08.015Z,13.68
2023-07-21T23:26:35.010Z,13.64
2023-07-21T23:29:04.125Z,13.62
2023-07-21T23:31:32.541Z,13.51
2023-07-21T23:34:00.225Z,13.46
2023-07-21T23:36:28.279Z,13.50
2023-07-21T23:38:56.055Z,13.41
2023-07-21T23:41:23.000Z,13.40
2023-07-21T23:43:49.888Z,13.33
2023-07-21T23:46:17.447Z,13.37
2023-07-21T23:48:44.296Z,13.34
2023-07-21T23:51:11.116Z,13.23
2023-07-21T23:53:38.033Z,13.14
2023-07-21T23:56:05.710Z,13.27
2023-07-21T23:58:32.561Z,13.24
